sensor_id;sensor_type;location;lat;lon;timestamp;P1;durP1;ratioP1;P2;durP2;ratioP2
62740;SDS011;48790;55.656;37.702;2022-08-04T00:01:18;36.10;;;16.75;;
62740;SDS011;48790;55.656;37.702;2022-08-04T00:04:07;42.50;;;17.00;;
62740;SDS011;48790;55.656;37.702;2022-08-04T00:12:07;40.80;;;16.60;;
62740;SDS011;48790;55.656;37.702;2022-08-04T00:14:37;48.20;;;17.45;;
62740;SDS011;48790;55.656;37.702;2022-08-04T00:17:04;62.50;;;17.02;;
62740;SDS011;48790;55.656;37.702;2022-08-04T00:19:35;46.13;;;16.55;;
62740;SDS011;48790;55.656;37.702;2022-08-04T00:22:07;59.28;;;17.67;;
62740;SDS011;48790;55.656;37.702;2022-08-04T00:24:34;60.60;;;17.77;;
62740;SDS011;48790;55.656;37.702;2022-08-04T00:27:01;72.45;;;18.73;;
62740;SDS011;48790;55.656;37.702;2022-08-04T00:29:28;77.97;;;19.00;;
62740;SDS011;48790;55.656;37.702;2022-08-04T00:31:56;77.20;;;19.00;;
62740;SDS011;48790;55.656;37.702;2022-08-04T00:34:23;97.97;;;21.10;;
62740;SDS011;48790;55.656;37.702;2022-08-04T00:36:50;103.07;;;21.60;;
62740;SDS011;48790;55.656;37.702;2022-08-04T00:39:23;112.40;;;22.45;;
62740;SDS011;48790;55.656;37.702;2022-08-04T00:50:10;110.55;;;22.52;;
62740;SDS011;48790;55.656;37.702;2022-08-04T00:55:56;109.55;;;22.73;;
62740;SDS011;48790;55.656;37.702;2022-08-04T00:58:28;94.25;;;24.63;;
62740;SDS011;48790;55.656;37.702;2022-08-04T01:07:48;100.07;;;23.25;;
62740;SDS011;48790;55.656;37.702;2022-08-04T01:13:25;127.57;;;24.15;;
62740;SDS011;48790;55.656;37.702;2022-08-04T01:16:03;124.88;;;24.73;;
62740;SDS011;48790;55.656;37.702;2022-08-04T01:21:16;126.82;;;24.08;;
62740;SDS011;48790;55.656;37.702;2022-08-04T01:29:39;97.82;;;23.58;;
62740;SDS011;48790;55.656;37.702;2022-08-04T01:34:50;84.18;;;22.15;;
62740;SDS011;48790;55.656;37.702;2022-08-04T01:37:36;90.93;;;23.70;;
62740;SDS011;48790;55.656;37.702;2022-08-04T01:40:17;96.57;;;24.67;;
62740;SDS011;48790;55.656;37.702;2022-08-04T01:42:46;95.88;;;24.48;;
62740;SDS011;48790;55.656;37.702;2022-08-04T01:45:19;83.30;;;22.55;;
62740;SDS011;48790;55.656;37.702;2022-08-04T01:47:50;92.15;;;25.25;;
62740;SDS011;48790;55.656;37.702;2022-08-04T01:50:17;77.80;;;23.67;;
62740;SDS011;48790;55.656;37.702;2022-08-04T01:52:45;78.70;;;23.50;;
62740;SDS011;48790;55.656;37.702;2022-08-04T01:55:12;83.03;;;23.77;;
62740;SDS011;48790;55.656;37.702;2022-08-04T01:57:43;75.38;;;22.40;;
62740;SDS011;48790;55.656;37.702;2022-08-04T02:00:20;68.35;;;22.77;;
62740;SDS011;48790;55.656;37.702;2022-08-04T02:02:49;79.40;;;23.30;;
62740;SDS011;48790;55.656;37.702;2022-08-04T02:05:16;78.55;;;24.00;;
62740;SDS011;48790;55.656;37.702;2022-08-04T02:15:57;83.63;;;24.33;;
62740;SDS011;48790;55.656;37.702;2022-08-04T02:18:33;73.72;;;24.60;;
62740;SDS011;48790;55.656;37.702;2022-08-04T02:21:08;76.00;;;23.47;;
62740;SDS011;48790;55.656;37.702;2022-08-04T02:23:37;73.05;;;23.90;;
62740;SDS011;48790;55.656;37.702;2022-08-04T02:26:11;80.13;;;25.38;;
62740;SDS011;48790;55.656;37.702;2022-08-04T02:36:48;60.25;;;23.55;;
62740;SDS011;48790;55.656;37.702;2022-08-04T02:39:18;69.38;;;23.73;;
62740;SDS011;48790;55.656;37.702;2022-08-04T02:41:46;75.78;;;24.92;;
62740;SDS011;48790;55.656;37.702;2022-08-04T02:44:13;65.85;;;24.67;;
62740;SDS011;48790;55.656;37.702;2022-08-04T02:46:47;56.78;;;23.35;;
62740;SDS011;48790;55.656;37.702;2022-08-04T02:49:16;73.22;;;24.83;;
62740;SDS011;48790;55.656;37.702;2022-08-04T02:51:49;63.35;;;23.88;;
62740;SDS011;48790;55.656;37.702;2022-08-04T02:54:17;65.97;;;25.33;;
62740;SDS011;48790;55.656;37.702;2022-08-04T02:56:44;78.63;;;27.65;;
62740;SDS011;48790;55.656;37.702;2022-08-04T02:59:13;61.50;;;26.25;;
62740;SDS011;48790;55.656;37.702;2022-08-04T03:01:40;73.32;;;27.08;;
62740;SDS011;48790;55.656;37.702;2022-08-04T03:10:00;65.18;;;26.98;;
62740;SDS011;48790;55.656;37.702;2022-08-04T03:15:54;79.53;;;26.63;;
62740;SDS011;48790;55.656;37.702;2022-08-04T03:21:13;64.32;;;25.90;;
62740;SDS011;48790;55.656;37.702;2022-08-04T04:00:58;61.45;;;29.52;;
62740;SDS011;48790;55.656;37.702;2022-08-04T04:09:19;64.63;;;27.95;;
62740;SDS011;48790;55.656;37.702;2022-08-04T04:20:34;47.88;;;23.70;;
62740;SDS011;48790;55.656;37.702;2022-08-04T04:23:31;48.67;;;22.67;;
62740;SDS011;48790;55.656;37.702;2022-08-04T04:39:56;40.85;;;19.52;;
62740;SDS011;48790;55.656;37.702;2022-08-04T04:45:04;41.85;;;18.95;;
62740;SDS011;48790;55.656;37.702;2022-08-04T04:55:44;47.70;;;18.27;;
62740;SDS011;48790;55.656;37.702;2022-08-04T04:58:20;47.30;;;17.73;;
62740;SDS011;48790;55.656;37.702;2022-08-04T05:12:03;30.27;;;11.68;;
62740;SDS011;48790;55.656;37.702;2022-08-04T05:14:53;30.77;;;12.33;;
62740;SDS011;48790;55.656;37.702;2022-08-04T05:17:25;31.27;;;11.20;;
62740;SDS011;48790;55.656;37.702;2022-08-04T05:20:03;25.40;;;11.00;;
62740;SDS011;48790;55.656;37.702;2022-08-04T05:28:33;18.65;;;7.45;;
62740;SDS011;48790;55.656;37.702;2022-08-04T05:31:04;19.33;;;8.30;;
62740;SDS011;48790;55.656;37.702;2022-08-04T05:33:39;17.73;;;8.80;;
62740;SDS011;48790;55.656;37.702;2022-08-04T05:36:13;18.60;;;9.15;;
62740;SDS011;48790;55.656;37.702;2022-08-04T05:38:41;20.80;;;8.20;;
62740;SDS011;48790;55.656;37.702;2022-08-04T05:41:08;24.40;;;8.52;;
62740;SDS011;48790;55.656;37.702;2022-08-04T05:43:38;19.50;;;7.50;;
62740;SDS011;48790;55.656;37.702;2022-08-04T05:46:07;15.45;;;7.40;;
62740;SDS011;48790;55.656;37.702;2022-08-04T05:48:34;16.65;;;7.38;;
62740;SDS011;48790;55.656;37.702;2022-08-04T05:51:00;26.25;;;8.90;;
62740;SDS011;48790;55.656;37.702;2022-08-04T05:53:30;13.77;;;7.72;;
62740;SDS011;48790;55.656;37.702;2022-08-04T05:55:58;22.02;;;8.32;;
62740;SDS011;48790;55.656;37.702;2022-08-04T05:58:25;21.05;;;7.95;;
62740;SDS011;48790;55.656;37.702;2022-08-04T06:00:54;21.58;;;8.13;;
62740;SDS011;48790;55.656;37.702;2022-08-04T06:03:20;20.05;;;7.70;;
62740;SDS011;48790;55.656;37.702;2022-08-04T06:05:47;15.43;;;6.80;;
62740;SDS011;48790;55.656;37.702;2022-08-04T06:08:14;12.27;;;5.80;;
62740;SDS011;48790;55.656;37.702;2022-08-04T06:10:41;15.80;;;6.28;;
62740;SDS011;48790;55.656;37.702;2022-08-04T06:13:10;16.70;;;5.82;;
62740;SDS011;48790;55.656;37.702;2022-08-04T06:15:38;16.70;;;5.97;;
62740;SDS011;48790;55.656;37.702;2022-08-04T06:18:06;18.17;;;5.65;;
62740;SDS011;48790;55.656;37.702;2022-08-04T06:20:35;42.70;;;6.20;;
62740;SDS011;48790;55.656;37.702;2022-08-04T06:23:05;13.35;;;4.35;;
62740;SDS011;48790;55.656;37.702;2022-08-04T06:25:34;9.43;;;4.35;;
62740;SDS011;48790;55.656;37.702;2022-08-04T06:28:04;12.50;;;4.60;;
62740;SDS011;48790;55.656;37.702;2022-08-04T06:30:30;8.23;;;4.20;;
62740;SDS011;48790;55.656;37.702;2022-08-04T06:32:58;15.23;;;4.80;;
62740;SDS011;48790;55.656;37.702;2022-08-04T06:35:28;22.55;;;4.85;;
62740;SDS011;48790;55.656;37.702;2022-08-04T06:37:55;21.50;;;4.45;;
62740;SDS011;48790;55.656;37.702;2022-08-04T06:40:22;11.38;;;4.43;;
62740;SDS011;48790;55.656;37.702;2022-08-04T06:42:49;11.73;;;4.00;;
62740;SDS011;48790;55.656;37.702;2022-08-04T06:45:16;8.55;;;4.50;;
62740;SDS011;48790;55.656;37.702;2022-08-04T06:47:44;18.25;;;4.63;;
62740;SDS011;48790;55.656;37.702;2022-08-04T06:50:16;14.02;;;4.50;;
62740;SDS011;48790;55.656;37.702;2022-08-04T06:52:43;9.45;;;3.83;;
62740;SDS011;48790;55.656;37.702;2022-08-04T06:55:10;24.17;;;4.47;;
62740;SDS011;48790;55.656;37.702;2022-08-04T06:57:38;22.30;;;4.63;;
62740;SDS011;48790;55.656;37.702;2022-08-04T07:00:09;16.58;;;4.00;;
62740;SDS011;48790;55.656;37.702;2022-08-04T07:02:41;19.38;;;4.70;;
62740;SDS011;48790;55.656;37.702;2022-08-04T07:05:18;15.13;;;4.47;;
62740;SDS011;48790;55.656;37.702;2022-08-04T07:07:46;10.90;;;4.82;;
62740;SDS011;48790;55.656;37.702;2022-08-04T07:10:16;14.52;;;4.88;;
62740;SDS011;48790;55.656;37.702;2022-08-04T07:12:42;18.13;;;4.95;;
62740;SDS011;48790;55.656;37.702;2022-08-04T07:15:10;19.58;;;4.63;;
62740;SDS011;48790;55.656;37.702;2022-08-04T07:17:39;10.32;;;4.05;;
62740;SDS011;48790;55.656;37.702;2022-08-04T07:20:05;13.25;;;3.88;;
62740;SDS011;48790;55.656;37.702;2022-08-04T07:22:32;6.13;;;3.83;;
62740;SDS011;48790;55.656;37.702;2022-08-04T07:24:59;9.55;;;3.60;;
62740;SDS011;48790;55.656;37.702;2022-08-04T07:27:26;9.27;;;3.70;;
62740;SDS011;48790;55.656;37.702;2022-08-04T07:29:52;13.88;;;4.05;;
62740;SDS011;48790;55.656;37.702;2022-08-04T07:32:19;19.38;;;4.10;;
62740;SDS011;48790;55.656;37.702;2022-08-04T07:34:49;7.88;;;3.70;;
62740;SDS011;48790;55.656;37.702;2022-08-04T07:37:16;17.03;;;4.57;;
62740;SDS011;48790;55.656;37.702;2022-08-04T07:39:43;16.20;;;3.75;;
62740;SDS011;48790;55.656;37.702;2022-08-04T07:42:10;18.80;;;4.10;;
62740;SDS011;48790;55.656;37.702;2022-08-04T07:44:39;10.88;;;3.90;;
62740;SDS011;48790;55.656;37.702;2022-08-04T07:47:06;19.25;;;4.05;;
62740;SDS011;48790;55.656;37.702;2022-08-04T07:49:32;8.55;;;3.63;;
62740;SDS011;48790;55.656;37.702;2022-08-04T07:51:58;7.95;;;3.63;;
62740;SDS011;48790;55.656;37.702;2022-08-04T07:54:25;11.75;;;3.65;;
62740;SDS011;48790;55.656;37.702;2022-08-04T07:56:51;12.02;;;3.38;;
62740;SDS011;48790;55.656;37.702;2022-08-04T07:59:17;15.90;;;3.85;;
62740;SDS011;48790;55.656;37.702;2022-08-04T08:01:46;14.50;;;3.60;;
62740;SDS011;48790;55.656;37.702;2022-08-04T08:04:13;7.22;;;3.55;;
62740;SDS011;48790;55.656;37.702;2022-08-04T08:06:41;15.43;;;3.58;;
62740;SDS011;48790;55.656;37.702;2022-08-04T08:09:13;14.52;;;3.70;;
62740;SDS011;48790;55.656;37.702;2022-08-04T08:11:41;21.05;;;4.32;;
62740;SDS011;48790;55.656;37.702;2022-08-04T08:14:09;10.18;;;4.00;;
62740;SDS011;48790;55.656;37.702;2022-08-04T08:16:36;17.80;;;4.47;;
62740;SDS011;48790;55.656;37.702;2022-08-04T08:19:03;9.60;;;4.18;;
62740;SDS011;48790;55.656;37.702;2022-08-04T08:21:32;13.52;;;4.03;;
62740;SDS011;48790;55.656;37.702;2022-08-04T08:23:59;13.32;;;4.07;;
62740;SDS011;48790;55.656;37.702;2022-08-04T08:26:27;9.57;;;3.80;;
62740;SDS011;48790;55.656;37.702;2022-08-04T08:28:53;10.18;;;3.92;;
62740;SDS011;48790;55.656;37.702;2022-08-04T08:31:20;9.63;;;3.85;;
62740;SDS011;48790;55.656;37.702;2022-08-04T08:33:47;7.00;;;3.88;;
62740;SDS011;48790;55.656;37.702;2022-08-04T08:36:22;11.60;;;3.58;;
62740;SDS011;48790;55.656;37.702;2022-08-04T08:50:59;9.88;;;4.43;;
62740;SDS011;48790;55.656;37.702;2022-08-04T09:10:02;13.88;;;5.00;;
62740;SDS011;48790;55.656;37.702;2022-08-04T09:12:36;14.88;;;4.72;;
62740;SDS011;48790;55.656;37.702;2022-08-04T09:15:13;11.35;;;4.85;;
62740;SDS011;48790;55.656;37.702;2022-08-04T09:25:25;10.00;;;5.32;;
62740;SDS011;48790;55.656;37.702;2022-08-04T09:28:06;10.63;;;4.68;;
62740;SDS011;48790;55.656;37.702;2022-08-04T09:36:09;23.85;;;5.28;;
62740;SDS011;48790;55.656;37.702;2022-08-04T09:38:43;9.43;;;5.22;;
62740;SDS011;48790;55.656;37.702;2022-08-04T09:55:04;6.57;;;4.75;;
62740;SDS011;48790;55.656;37.702;2022-08-04T10:00:35;9.90;;;5.13;;
62740;SDS011;48790;55.656;37.702;2022-08-04T10:03:06;13.93;;;5.88;;
62740;SDS011;48790;55.656;37.702;2022-08-04T10:08:16;9.60;;;4.80;;
62740;SDS011;48790;55.656;37.702;2022-08-04T10:10:59;16.02;;;5.30;;
62740;SDS011;48790;55.656;37.702;2022-08-04T10:13:41;9.00;;;5.32;;
62740;SDS011;48790;55.656;37.702;2022-08-04T10:19:13;8.60;;;5.80;;
62740;SDS011;48790;55.656;37.702;2022-08-04T10:24:47;12.00;;;6.15;;
62740;SDS011;48790;55.656;37.702;2022-08-04T10:27:29;8.32;;;5.93;;
62740;SDS011;48790;55.656;37.702;2022-08-04T10:30:17;10.55;;;5.95;;
62740;SDS011;48790;55.656;37.702;2022-08-04T10:35:54;12.00;;;6.05;;
62740;SDS011;48790;55.656;37.702;2022-08-04T10:38:36;13.70;;;6.22;;
62740;SDS011;48790;55.656;37.702;2022-08-04T10:41:08;9.75;;;6.45;;
62740;SDS011;48790;55.656;37.702;2022-08-04T10:43:53;13.82;;;6.10;;
62740;SDS011;48790;55.656;37.702;2022-08-04T10:49:24;11.75;;;6.40;;
62740;SDS011;48790;55.656;37.702;2022-08-04T10:55:04;14.63;;;6.75;;
62740;SDS011;48790;55.656;37.702;2022-08-04T10:57:43;13.05;;;6.38;;
62740;SDS011;48790;55.656;37.702;2022-08-04T11:00:13;9.80;;;6.80;;
62740;SDS011;48790;55.656;37.702;2022-08-04T11:05:44;12.68;;;7.05;;
62740;SDS011;48790;55.656;37.702;2022-08-04T11:08:17;14.45;;;7.30;;
62740;SDS011;48790;55.656;37.702;2022-08-04T11:10:50;10.95;;;7.00;;
62740;SDS011;48790;55.656;37.702;2022-08-04T11:13:24;11.35;;;7.30;;
62740;SDS011;48790;55.656;37.702;2022-08-04T11:16:08;15.30;;;8.25;;
62740;SDS011;48790;55.656;37.702;2022-08-04T11:19:10;12.27;;;7.90;;
62740;SDS011;48790;55.656;37.702;2022-08-04T11:22:10;17.17;;;8.37;;
62740;SDS011;48790;55.656;37.702;2022-08-04T11:30:03;17.15;;;8.60;;
62740;SDS011;48790;55.656;37.702;2022-08-04T11:35:49;17.40;;;9.18;;
62740;SDS011;48790;55.656;37.702;2022-08-04T11:38:30;20.27;;;8.85;;
62740;SDS011;48790;55.656;37.702;2022-08-04T11:41:08;14.20;;;9.30;;
62740;SDS011;48790;55.656;37.702;2022-08-04T11:43:53;14.57;;;8.98;;
62740;SDS011;48790;55.656;37.702;2022-08-04T11:49:32;17.63;;;9.05;;
62740;SDS011;48790;55.656;37.702;2022-08-04T11:55:04;14.75;;;9.07;;
62740;SDS011;48790;55.656;37.702;2022-08-04T11:57:33;20.00;;;8.85;;
62740;SDS011;48790;55.656;37.702;2022-08-04T12:00:00;15.43;;;8.77;;
62740;SDS011;48790;55.656;37.702;2022-08-04T12:05:35;28.88;;;9.77;;
62740;SDS011;48790;55.656;37.702;2022-08-04T12:14:29;16.05;;;8.38;;
62740;SDS011;48790;55.656;37.702;2022-08-04T12:17:04;19.85;;;8.93;;
62740;SDS011;48790;55.656;37.702;2022-08-04T12:22:22;15.50;;;8.38;;
62740;SDS011;48790;55.656;37.702;2022-08-04T12:25:04;11.52;;;8.70;;
62740;SDS011;48790;55.656;37.702;2022-08-04T12:27:32;10.75;;;8.35;;
62740;SDS011;48790;55.656;37.702;2022-08-04T12:30:22;16.50;;;8.60;;
62740;SDS011;48790;55.656;37.702;2022-08-04T12:33:06;14.73;;;8.50;;
62740;SDS011;48790;55.656;37.702;2022-08-04T12:35:52;12.05;;;8.27;;
62740;SDS011;48790;55.656;37.702;2022-08-04T12:38:23;14.35;;;8.65;;
62740;SDS011;48790;55.656;37.702;2022-08-04T12:40:53;18.55;;;8.63;;
62740;SDS011;48790;55.656;37.702;2022-08-04T12:43:34;15.68;;;8.95;;
62740;SDS011;48790;55.656;37.702;2022-08-04T12:46:08;11.63;;;8.20;;
62740;SDS011;48790;55.656;37.702;2022-08-04T12:48:36;14.90;;;8.68;;
62740;SDS011;48790;55.656;37.702;2022-08-04T12:51:04;18.80;;;8.25;;
62740;SDS011;48790;55.656;37.702;2022-08-04T12:53:34;16.70;;;8.13;;
62740;SDS011;48790;55.656;37.702;2022-08-04T12:56:03;12.82;;;8.85;;
62740;SDS011;48790;55.656;37.702;2022-08-04T12:58:31;17.92;;;8.10;;
62740;SDS011;48790;55.656;37.702;2022-08-04T13:01:03;17.00;;;8.18;;
62740;SDS011;48790;55.656;37.702;2022-08-04T13:03:40;14.23;;;8.40;;
62740;SDS011;48790;55.656;37.702;2022-08-04T13:06:10;12.07;;;7.90;;
62740;SDS011;48790;55.656;37.702;2022-08-04T13:08:40;15.57;;;8.02;;
62740;SDS011;48790;55.656;37.702;2022-08-04T13:11:07;23.80;;;8.77;;
62740;SDS011;48790;55.656;37.702;2022-08-04T13:13:34;15.82;;;8.63;;
62740;SDS011;48790;55.656;37.702;2022-08-04T13:16:06;16.55;;;9.00;;
62740;SDS011;48790;55.656;37.702;2022-08-04T13:18:37;17.80;;;8.60;;
62740;SDS011;48790;55.656;37.702;2022-08-04T13:21:11;16.48;;;9.05;;
62740;SDS011;48790;55.656;37.702;2022-08-04T13:23:46;14.70;;;8.52;;
62740;SDS011;48790;55.656;37.702;2022-08-04T13:26:17;15.30;;;9.35;;
62740;SDS011;48790;55.656;37.702;2022-08-04T13:28:44;13.77;;;8.98;;
62740;SDS011;48790;55.656;37.702;2022-08-04T13:31:21;14.00;;;9.00;;
62740;SDS011;48790;55.656;37.702;2022-08-04T13:33:49;15.07;;;9.15;;
62740;SDS011;48790;55.656;37.702;2022-08-04T13:36:17;16.17;;;9.05;;
62740;SDS011;48790;55.656;37.702;2022-08-04T13:41:14;12.88;;;9.52;;
62740;SDS011;48790;55.656;37.702;2022-08-04T13:43:46;14.73;;;8.90;;
62740;SDS011;48790;55.656;37.702;2022-08-04T13:46:18;14.38;;;9.20;;
62740;SDS011;48790;55.656;37.702;2022-08-04T13:48:49;15.27;;;9.65;;
62740;SDS011;48790;55.656;37.702;2022-08-04T13:51:17;14.48;;;9.07;;
62740;SDS011;48790;55.656;37.702;2022-08-04T13:53:44;16.27;;;9.70;;
62740;SDS011;48790;55.656;37.702;2022-08-04T13:56:20;18.52;;;10.40;;
62740;SDS011;48790;55.656;37.702;2022-08-04T13:58:47;17.75;;;10.02;;
62740;SDS011;48790;55.656;37.702;2022-08-04T14:01:15;16.13;;;10.23;;
62740;SDS011;48790;55.656;37.702;2022-08-04T14:03:45;20.45;;;10.70;;
62740;SDS011;48790;55.656;37.702;2022-08-04T14:08:49;19.23;;;10.63;;
62740;SDS011;48790;55.656;37.702;2022-08-04T14:11:17;18.17;;;10.57;;
62740;SDS011;48790;55.656;37.702;2022-08-04T14:13:48;20.58;;;10.73;;
62740;SDS011;48790;55.656;37.702;2022-08-04T14:16:15;15.40;;;11.40;;
62740;SDS011;48790;55.656;37.702;2022-08-04T14:18:45;19.50;;;10.63;;
62740;SDS011;48790;55.656;37.702;2022-08-04T14:21:13;18.30;;;11.00;;
62740;SDS011;48790;55.656;37.702;2022-08-04T14:26:31;17.70;;;11.45;;
62740;SDS011;48790;55.656;37.702;2022-08-04T14:31:40;18.60;;;11.32;;
62740;SDS011;48790;55.656;37.702;2022-08-04T14:34:06;14.75;;;11.48;;
62740;SDS011;48790;55.656;37.702;2022-08-04T14:36:39;17.35;;;10.93;;
62740;SDS011;48790;55.656;37.702;2022-08-04T14:39:09;14.25;;;11.95;;
62740;SDS011;48790;55.656;37.702;2022-08-04T14:41:47;25.55;;;10.95;;
62740;SDS011;48790;55.656;37.702;2022-08-04T14:44:14;19.23;;;11.77;;
62740;SDS011;48790;55.656;37.702;2022-08-04T14:46:51;20.67;;;11.90;;
62740;SDS011;48790;55.656;37.702;2022-08-04T14:49:18;14.85;;;11.18;;
62740;SDS011;48790;55.656;37.702;2022-08-04T14:51:45;20.50;;;12.40;;
62740;SDS011;48790;55.656;37.702;2022-08-04T14:54:24;29.05;;;12.00;;
62740;SDS011;48790;55.656;37.702;2022-08-04T14:57:00;21.50;;;12.18;;
62740;SDS011;48790;55.656;37.702;2022-08-04T15:02:25;20.45;;;10.80;;
62740;SDS011;48790;55.656;37.702;2022-08-04T15:04:51;15.55;;;11.60;;
62740;SDS011;48790;55.656;37.702;2022-08-04T15:07:17;19.70;;;11.95;;
62740;SDS011;48790;55.656;37.702;2022-08-04T15:09:44;19.60;;;11.70;;
62740;SDS011;48790;55.656;37.702;2022-08-04T15:12:10;37.25;;;11.73;;
62740;SDS011;48790;55.656;37.702;2022-08-04T15:14:36;18.05;;;11.57;;
62740;SDS011;48790;55.656;37.702;2022-08-04T15:17:03;18.75;;;10.80;;
62740;SDS011;48790;55.656;37.702;2022-08-04T15:19:29;14.13;;;10.52;;
62740;SDS011;48790;55.656;37.702;2022-08-04T15:21:55;19.38;;;11.20;;
62740;SDS011;48790;55.656;37.702;2022-08-04T15:24:21;18.13;;;11.20;;
62740;SDS011;48790;55.656;37.702;2022-08-04T15:26:48;21.35;;;11.50;;
62740;SDS011;48790;55.656;37.702;2022-08-04T15:29:17;16.10;;;11.05;;
62740;SDS011;48790;55.656;37.702;2022-08-04T15:31:45;18.10;;;11.65;;
62740;SDS011;48790;55.656;37.702;2022-08-04T15:34:12;19.88;;;11.43;;
62740;SDS011;48790;55.656;37.702;2022-08-04T15:36:55;18.98;;;11.80;;
62740;SDS011;48790;55.656;37.702;2022-08-04T15:39:33;22.95;;;11.32;;
62740;SDS011;48790;55.656;37.702;2022-08-04T15:47:15;25.23;;;12.38;;
62740;SDS011;48790;55.656;37.702;2022-08-04T15:49:43;18.88;;;12.00;;
62740;SDS011;48790;55.656;37.702;2022-08-04T15:52:11;15.48;;;11.75;;
62740;SDS011;48790;55.656;37.702;2022-08-04T15:54:40;19.80;;;12.10;;
62740;SDS011;48790;55.656;37.702;2022-08-04T15:57:07;23.63;;;11.35;;
62740;SDS011;48790;55.656;37.702;2022-08-04T16:12:58;16.33;;;11.52;;
62740;SDS011;48790;55.656;37.702;2022-08-04T16:15:35;20.58;;;11.57;;
62740;SDS011;48790;55.656;37.702;2022-08-04T16:18:08;18.40;;;11.63;;
62740;SDS011;48790;55.656;37.702;2022-08-04T16:20:35;19.63;;;11.80;;
62740;SDS011;48790;55.656;37.702;2022-08-04T16:23:30;16.45;;;11.57;;
62740;SDS011;48790;55.656;37.702;2022-08-04T16:26:15;20.58;;;11.85;;
62740;SDS011;48790;55.656;37.702;2022-08-04T16:29:00;18.05;;;12.32;;
62740;SDS011;48790;55.656;37.702;2022-08-04T16:31:26;18.70;;;12.43;;
62740;SDS011;48790;55.656;37.702;2022-08-04T16:33:57;23.30;;;11.82;;
62740;SDS011;48790;55.656;37.702;2022-08-04T16:39:18;20.40;;;12.15;;
62740;SDS011;48790;55.656;37.702;2022-08-04T16:41:44;19.00;;;12.88;;
62740;SDS011;48790;55.656;37.702;2022-08-04T16:46:53;17.25;;;12.63;;
62740;SDS011;48790;55.656;37.702;2022-08-04T16:49:19;21.40;;;13.25;;
62740;SDS011;48790;55.656;37.702;2022-08-04T16:51:46;16.35;;;13.13;;
62740;SDS011;48790;55.656;37.702;2022-08-04T16:54:14;25.00;;;13.32;;
62740;SDS011;48790;55.656;37.702;2022-08-04T16:56:41;21.20;;;12.48;;
62740;SDS011;48790;55.656;37.702;2022-08-04T16:59:07;21.65;;;13.07;;
62740;SDS011;48790;55.656;37.702;2022-08-04T17:01:34;27.67;;;13.68;;
62740;SDS011;48790;55.656;37.702;2022-08-04T17:04:02;21.52;;;13.85;;
62740;SDS011;48790;55.656;37.702;2022-08-04T17:06:39;24.35;;;13.98;;
62740;SDS011;48790;55.656;37.702;2022-08-04T17:09:14;19.85;;;13.43;;
62740;SDS011;48790;55.656;37.702;2022-08-04T17:11:42;27.23;;;13.73;;
62740;SDS011;48790;55.656;37.702;2022-08-04T17:14:09;28.33;;;13.57;;
62740;SDS011;48790;55.656;37.702;2022-08-04T17:16:37;25.08;;;14.82;;
62740;SDS011;48790;55.656;37.702;2022-08-04T17:19:05;25.45;;;13.98;;
62740;SDS011;48790;55.656;37.702;2022-08-04T17:21:34;28.63;;;14.20;;
62740;SDS011;48790;55.656;37.702;2022-08-04T17:24:02;30.98;;;14.10;;
62740;SDS011;48790;55.656;37.702;2022-08-04T17:26:33;32.72;;;14.02;;
62740;SDS011;48790;55.656;37.702;2022-08-04T17:29:01;20.75;;;14.02;;
62740;SDS011;48790;55.656;37.702;2022-08-04T17:31:29;29.80;;;14.90;;
62740;SDS011;48790;55.656;37.702;2022-08-04T17:33:57;24.13;;;14.85;;
62740;SDS011;48790;55.656;37.702;2022-08-04T17:36:29;27.15;;;15.15;;
62740;SDS011;48790;55.656;37.702;2022-08-04T17:38:58;25.50;;;14.63;;
62740;SDS011;48790;55.656;37.702;2022-08-04T17:41:29;35.22;;;15.77;;
62740;SDS011;48790;55.656;37.702;2022-08-04T17:43:56;35.33;;;17.08;;
62740;SDS011;48790;55.656;37.702;2022-08-04T17:46:43;30.55;;;17.30;;
62740;SDS011;48790;55.656;37.702;2022-08-04T17:51:44;31.95;;;15.82;;
62740;SDS011;48790;55.656;37.702;2022-08-04T17:54:19;30.17;;;15.95;;
62740;SDS011;48790;55.656;37.702;2022-08-04T17:56:50;26.08;;;15.88;;
62740;SDS011;48790;55.656;37.702;2022-08-04T17:59:18;29.60;;;17.02;;
62740;SDS011;48790;55.656;37.702;2022-08-04T18:04:24;32.58;;;16.48;;
62740;SDS011;48790;55.656;37.702;2022-08-04T18:06:56;26.02;;;17.20;;
62740;SDS011;48790;55.656;37.702;2022-08-04T18:09:27;30.80;;;17.20;;
62740;SDS011;48790;55.656;37.702;2022-08-04T18:11:56;33.78;;;17.60;;
62740;SDS011;48790;55.656;37.702;2022-08-04T18:14:24;36.72;;;18.60;;
62740;SDS011;48790;55.656;37.702;2022-08-04T18:16:51;29.05;;;18.08;;
62740;SDS011;48790;55.656;37.702;2022-08-04T18:19:17;24.02;;;17.73;;
62740;SDS011;48790;55.656;37.702;2022-08-04T18:21:43;27.25;;;17.17;;
62740;SDS011;48790;55.656;37.702;2022-08-04T18:24:13;30.33;;;17.92;;
62740;SDS011;48790;55.656;37.702;2022-08-04T18:26:39;30.65;;;16.98;;
62740;SDS011;48790;55.656;37.702;2022-08-04T18:29:06;41.65;;;18.23;;
62740;SDS011;48790;55.656;37.702;2022-08-04T18:31:35;28.63;;;16.60;;
62740;SDS011;48790;55.656;37.702;2022-08-04T18:34:03;27.10;;;17.10;;
62740;SDS011;48790;55.656;37.702;2022-08-04T18:36:30;44.88;;;18.42;;
62740;SDS011;48790;55.656;37.702;2022-08-04T18:38:57;34.17;;;17.70;;
62740;SDS011;48790;55.656;37.702;2022-08-04T18:41:27;28.83;;;16.50;;
62740;SDS011;48790;55.656;37.702;2022-08-04T18:43:54;38.72;;;18.13;;
62740;SDS011;48790;55.656;37.702;2022-08-04T18:46:20;31.48;;;17.13;;
62740;SDS011;48790;55.656;37.702;2022-08-04T18:48:47;32.00;;;17.98;;
62740;SDS011;48790;55.656;37.702;2022-08-04T18:51:13;39.58;;;18.55;;
62740;SDS011;48790;55.656;37.702;2022-08-04T18:53:39;40.53;;;19.20;;
62740;SDS011;48790;55.656;37.702;2022-08-04T18:56:05;37.00;;;19.23;;
62740;SDS011;48790;55.656;37.702;2022-08-04T18:58:31;30.48;;;18.27;;
62740;SDS011;48790;55.656;37.702;2022-08-04T19:00:57;36.95;;;18.35;;
62740;SDS011;48790;55.656;37.702;2022-08-04T19:03:24;43.92;;;19.45;;
62740;SDS011;48790;55.656;37.702;2022-08-04T19:05:50;50.42;;;19.35;;
62740;SDS011;48790;55.656;37.702;2022-08-04T19:08:16;45.03;;;19.23;;
62740;SDS011;48790;55.656;37.702;2022-08-04T19:10:42;61.97;;;21.48;;
62740;SDS011;48790;55.656;37.702;2022-08-04T19:13:08;50.05;;;21.13;;
62740;SDS011;48790;55.656;37.702;2022-08-04T19:15:34;61.92;;;21.92;;
62740;SDS011;48790;55.656;37.702;2022-08-04T19:18:00;55.25;;;21.20;;
62740;SDS011;48790;55.656;37.702;2022-08-04T19:20:27;52.45;;;20.95;;
62740;SDS011;48790;55.656;37.702;2022-08-04T19:22:53;49.85;;;20.30;;
62740;SDS011;48790;55.656;37.702;2022-08-04T19:25:19;53.13;;;20.20;;
62740;SDS011;48790;55.656;37.702;2022-08-04T19:27:45;47.33;;;19.67;;
62740;SDS011;48790;55.656;37.702;2022-08-04T19:30:11;46.13;;;19.40;;
62740;SDS011;48790;55.656;37.702;2022-08-04T19:32:37;47.60;;;20.48;;
62740;SDS011;48790;55.656;37.702;2022-08-04T19:35:03;53.67;;;20.60;;
62740;SDS011;48790;55.656;37.702;2022-08-04T19:37:30;43.22;;;20.25;;
62740;SDS011;48790;55.656;37.702;2022-08-04T19:39:56;38.85;;;19.60;;
62740;SDS011;48790;55.656;37.702;2022-08-04T19:42:22;48.35;;;20.50;;
62740;SDS011;48790;55.656;37.702;2022-08-04T19:44:48;51.35;;;20.00;;